createdAt,value
2019-05-12T00:00:01.287Z,60.21
2019-05-12T00:02:02.926Z,60.29
2019-05-12T00:04:04.535Z,60.41
2019-05-12T00:06:08.624Z,60.51
2019-05-12T00:08:08.444Z,60.45
2019-05-12T00:10:09.488Z,60.34
2019-05-12T00:12:11.131Z,60.20
2019-05-12T00:14:12.729Z,60.14
2019-05-12T00:16:14.342Z,60.10
2019-05-12T00:18:17.963Z,59.88
2019-05-12T00:20:18.308Z,59.83
2019-05-12T00:22:19.308Z,59.69
2019-05-12T00:24:20.924Z,59.88
2019-05-12T00:26:22.526Z,60.05
2019-05-12T00:28:24.128Z,60.18
2019-05-12T00:30:31.385Z,60.66
2019-05-12T00:32:32.966Z,60.52
2019-05-12T00:34:34.567Z,60.60
2019-05-12T00:36:37.968Z,60.76
2019-05-12T00:38:38.235Z,60.41
2019-05-12T00:40:39.826Z,60.65
2019-05-12T00:42:41.180Z,60.78
2019-05-12T00:44:42.803Z,61.72
2019-05-12T00:46:44.407Z,61.25
2019-05-12T00:48:47.788Z,61.30
2019-05-12T00:50:48.530Z,61.55
2019-05-12T00:52:49.340Z,61.42
2019-05-12T00:54:50.986Z,61.21
2019-05-12T00:56:52.581Z,61.34
2019-05-12T00:58:54.193Z,61.55
2019-05-12T01:00:55.770Z,61.66
2019-05-12T01:02:58.183Z,61.79
2019-05-12T01:04:59.028Z,61.86
2019-05-12T01:07:00.615Z,61.67
2019-05-12T01:09:02.259Z,61.50
2019-05-12T01:11:03.863Z,61.40
2019-05-12T01:13:08.169Z,61.53
2019-05-12T01:15:07.479Z,61.67
2019-05-12T01:17:08.864Z,61.59
2019-05-12T01:19:10.457Z,61.32
2019-05-12T01:21:12.067Z,61.40
2019-05-12T01:23:13.657Z,61.55
2019-05-12T01:25:17.478Z,61.46
2019-05-12T01:27:18.071Z,61.49
2019-05-12T01:29:18.579Z,61.25
2019-05-12T01:31:20.179Z,61.77
2019-05-12T01:33:21.778Z,61.80
2019-05-12T01:35:23.393Z,61.64
2019-05-12T01:37:25.003Z,61.46
2019-05-12T01:39:27.749Z,61.35
2019-05-12T01:41:28.763Z,61.39
2019-05-12T01:43:29.948Z,61.31
2019-05-12T01:45:31.538Z,61.66
2019-05-12T01:47:33.161Z,61.43
2019-05-12T01:49:34.750Z,61.20
2019-05-12T01:51:38.262Z,61.17
2019-05-12T01:53:38.045Z,61.23
2019-05-12T01:55:39.636Z,61.11
2019-05-12T01:57:41.252Z,61.21
2019-05-12T01:59:42.842Z,61.28
2019-05-12T02:01:44.438Z,61.04
2019-05-12T02:03:48.076Z,61.01
2019-05-12T02:05:51.704Z,60.95
2019-05-12T02:07:53.352Z,60.71
2019-05-12T02:09:54.946Z,60.99
2019-05-12T02:11:58.224Z,60.75
2019-05-12T02:13:58.172Z,60.79
2019-05-12T02:15:59.762Z,60.78
2019-05-12T02:18:01.342Z,60.67
2019-05-12T02:20:02.952Z,60.50
2019-05-12T02:22:04.586Z,60.81
2019-05-12T02:24:07.767Z,60.77
2019-05-12T02:26:08.220Z,60.82
2019-05-12T02:28:09.663Z,60.68
2019-05-12T02:30:11.180Z,60.68
2019-05-12T02:32:12.791Z,60.82
2019-05-12T02:34:15.693Z,60.91
2019-05-12T02:36:16.070Z,60.74
2019-05-12T02:38:17.660Z,60.71
2019-05-12T02:40:19.304Z,60.94
2019-05-12T02:42:24.207Z,61.08
2019-05-12T02:44:24.743Z,60.80
2019-05-12T02:46:25.542Z,61.25
2019-05-12T02:48:25.936Z,60.95
2019-05-12T02:50:27.582Z,60.82
2019-05-12T02:52:29.178Z,60.96
2019-05-12T02:54:47.073Z,60.95
2019-05-12T02:56:35.195Z,60.85
2019-05-12T02:58:34.813Z,60.78
2019-05-12T03:00:35.927Z,60.71
2019-05-12T03:02:37.316Z,60.75
2019-05-12T03:04:38.929Z,61.22
2019-05-12T03:06:40.546Z,61.11
2019-05-12T03:08:44.770Z,61.19
2019-05-12T03:10:44.900Z,61.68
2019-05-12T03:12:45.469Z,61.23
2019-05-12T03:14:47.058Z,61.16
2019-05-12T03:16:48.644Z,61.09
2019-05-12T03:18:50.229Z,61.17
2019-05-12T03:20:54.039Z,61.25
2019-05-12T03:22:55.427Z,61.18
2019-05-12T03:25:07.834Z,61.16
2019-05-12T03:26:56.799Z,61.22
2019-05-12T03:28:58.389Z,61.02
2019-05-12T03:30:59.997Z,61.03
2019-05-12T03:33:01.581Z,61.42
2019-05-12T03:35:08.407Z,61.16
2019-05-12T03:37:07.722Z,61.17
2019-05-12T03:39:06.564Z,61.19
2019-05-12T03:41:08.227Z,61.30
2019-05-12T03:43:09.861Z,61.09
2019-05-12T03:45:14.739Z,61.25
2019-05-12T03:47:14.499Z,61.17
2019-05-12T03:49:15.577Z,61.41
2019-05-12T03:51:16.658Z,61.21
2019-05-12T03:53:18.316Z,61.18
2019-05-12T03:55:33.432Z,60.97
2019-05-12T03:57:21.569Z,61.04
2019-05-12T03:59:25.566Z,61.07
2019-05-12T04:01:25.591Z,60.97
2019-05-12T04:03:26.536Z,60.82
2019-05-12T04:05:28.131Z,60.79
2019-05-12T04:07:29.741Z,60.89
2019-05-12T04:09:34.653Z,60.81
2019-05-12T04:11:35.640Z,60.68
2019-05-12T04:13:34.634Z,60.62
2019-05-12T04:15:36.265Z,60.67
2019-05-12T04:17:37.918Z,60.69
2019-05-12T04:19:39.533Z,60.78
2019-05-12T04:21:44.370Z,60.59
2019-05-12T04:23:44.337Z,60.61
2019-05-12T04:25:52.234Z,60.75
2019-05-12T04:27:46.177Z,60.98
2019-05-12T04:29:47.771Z,61.05
2019-05-12T04:31:49.380Z,60.98
2019-05-12T04:33:54.466Z,60.74
2019-05-12T04:35:55.254Z,60.59
2019-05-12T04:37:55.311Z,60.68
2019-05-12T04:39:55.931Z,60.77
2019-05-12T04:41:57.532Z,60.65
2019-05-12T04:43:59.163Z,60.76
2019-05-12T04:46:00.751Z,61.08
2019-05-12T04:48:05.223Z,61.28
2019-05-12T04:50:05.374Z,60.85
2019-05-12T04:52:05.637Z,60.63
2019-05-12T04:54:07.267Z,60.79
2019-05-12T04:56:18.971Z,60.99
2019-05-12T04:58:10.506Z,60.99
2019-05-12T05:00:15.412Z,61.17
2019-05-12T05:02:15.290Z,61.43
2019-05-12T05:04:15.804Z,61.16
2019-05-12T05:06:17.109Z,61.17
2019-05-12T05:08:19.878Z,61.32
2019-05-12T05:10:20.420Z,61.39
2019-05-12T05:12:23.897Z,61.68
2019-05-12T05:14:24.819Z,62.31
2019-05-12T05:16:25.371Z,62.38
2019-05-12T05:18:26.990Z,62.21
2019-05-12T05:20:28.562Z,62.49
2019-05-12T05:22:30.204Z,62.50
2019-05-12T05:24:33.871Z,62.52
2019-05-12T05:26:36.969Z,62.17
2019-05-12T05:28:35.087Z,62.09
2019-05-12T05:30:36.696Z,61.75
2019-05-12T05:32:38.343Z,62.09
2019-05-12T05:34:39.964Z,62.16
2019-05-12T05:36:43.360Z,62.06
2019-05-12T05:38:43.753Z,62.21
2019-05-12T05:40:44.886Z,62.01
2019-05-12T05:42:46.474Z,61.96
2019-05-12T05:44:48.066Z,61.74
2019-05-12T05:46:50.241Z,62.08
2019-05-12T05:48:54.136Z,61.66
2019-05-12T05:50:54.016Z,61.82
2019-05-12T05:52:54.895Z,62.13
2019-05-12T05:54:56.539Z,62.16
2019-05-12T05:57:02.837Z,61.97
2019-05-12T05:58:59.802Z,61.72
2019-05-12T06:01:05.943Z,61.46
2019-05-12T06:03:05.449Z,61.46
2019-05-12T06:05:04.826Z,61.50
2019-05-12T06:07:06.425Z,61.27
2019-05-12T06:09:08.020Z,61.05
2019-05-12T06:11:14.848Z,61.07
2019-05-12T06:13:11.276Z,61.49
2019-05-12T06:15:13.530Z,61.78
2019-05-12T06:17:14.679Z,62.04
2019-05-12T06:19:16.228Z,61.64
2019-05-12T06:21:17.836Z,61.90
2019-05-12T06:23:19.421Z,61.87
2019-05-12T06:25:21.005Z,62.11
2019-05-12T06:27:24.338Z,62.10
2019-05-12T06:29:25.132Z,61.87
2019-05-12T06:31:29.822Z,61.82
2019-05-12T06:33:31.550Z,61.84
2019-05-12T06:35:30.902Z,61.81
2019-05-12T06:37:30.916Z,61.80
2019-05-12T06:39:34.341Z,61.61
2019-05-12T06:41:34.197Z,61.54
2019-05-12T06:43:39.579Z,61.55
2019-05-12T06:45:42.333Z,61.39
2019-05-12T06:47:43.886Z,61.44
2019-05-12T06:49:40.759Z,61.40
2019-05-12T06:51:44.409Z,61.46
2019-05-12T06:53:44.392Z,61.34
2019-05-12T06:55:45.712Z,61.21
2019-05-12T06:57:50.146Z,61.24
2019-05-12T06:59:51.225Z,61.48
2019-05-12T07:01:56.138Z,61.39
2019-05-12T07:03:53.369Z,61.54
2019-05-12T07:05:54.053Z,61.20
2019-05-12T07:07:55.701Z,61.25
2019-05-12T07:10:10.421Z,61.24
2019-05-12T07:12:03.883Z,61.08
2019-05-12T07:14:07.220Z,61.06
2019-05-12T07:16:10.044Z,61.13
2019-05-12T07:18:10.379Z,61.26
2019-05-12T07:20:14.524Z,61.23
2019-05-12T07:22:22.378Z,60.98
2019-05-12T07:24:15.184Z,60.83
2019-05-12T07:26:19.459Z,60.67
2019-05-12T07:28:18.471Z,60.94
2019-05-12T07:30:20.127Z,60.99
2019-05-12T07:32:24.466Z,60.97
2019-05-12T07:34:23.990Z,60.53
2019-05-12T07:36:25.100Z,60.18
2019-05-12T07:38:26.748Z,60.18
2019-05-12T07:40:30.131Z,60.21
2019-05-12T07:42:32.407Z,60.14
2019-05-12T07:44:39.732Z,60.12
2019-05-12T07:46:34.225Z,60.13
2019-05-12T07:48:35.236Z,60.02
2019-05-12T07:50:36.900Z,59.98
2019-05-12T07:52:38.493Z,59.94
2019-05-12T07:54:40.114Z,59.79
2019-05-12T07:56:44.038Z,59.76
2019-05-12T07:58:47.548Z,59.71
2019-05-12T08:00:44.988Z,59.67
2019-05-12T08:02:46.611Z,59.69
2019-05-12T08:04:48.245Z,59.69
2019-05-12T08:06:49.848Z,59.63
2019-05-12T08:08:58.104Z,59.55
2019-05-12T08:10:55.866Z,59.38
2019-05-12T08:12:59.578Z,59.32
2019-05-12T08:14:59.374Z,59.23
2019-05-12T08:17:02.049Z,59.14
2019-05-12T08:18:59.750Z,59.16
2019-05-12T08:21:03.552Z,59.13
2019-05-12T08:23:05.785Z,59.13
2019-05-12T08:25:04.827Z,59.11
2019-05-12T08:27:06.726Z,59.08
2019-05-12T08:29:10.401Z,59.03
2019-05-12T08:31:09.792Z,59.03
2019-05-12T08:33:11.404Z,58.95
2019-05-12T08:35:13.915Z,58.91
2019-05-12T08:37:14.661Z,58.94
2019-05-12T08:39:21.004Z,58.96
2019-05-12T08:41:17.941Z,59.01
2019-05-12T08:43:19.532Z,59.05
2019-05-12T08:45:25.708Z,59.02
2019-05-12T08:47:23.883Z,58.98
2019-05-12T08:49:24.439Z,58.86
2019-05-12T08:51:26.077Z,58.82
2019-05-12T08:53:27.668Z,58.77
2019-05-12T08:55:31.229Z,58.75
2019-05-12T08:57:34.805Z,58.70
2019-05-12T08:59:34.186Z,58.54
2019-05-12T09:01:34.480Z,58.46
2019-05-12T09:03:35.864Z,58.45
2019-05-12T09:05:38.528Z,58.42
2019-05-12T09:07:39.953Z,58.39
2019-05-12T09:09:40.832Z,58.31
2019-05-12T09:11:44.091Z,58.25
2019-05-12T09:13:44.100Z,58.15
2019-05-12T09:15:45.690Z,58.07
2019-05-12T09:17:52.467Z,58.02
2019-05-12T09:19:49.000Z,57.99
2019-05-12T09:21:51.060Z,57.92
2019-05-12T09:23:55.577Z,57.73
2019-05-12T09:25:57.220Z,57.70
2019-05-12T09:27:55.996Z,57.59
2019-05-12T09:29:59.064Z,57.37
2019-05-12T09:32:04.536Z,57.28
2019-05-12T09:34:05.935Z,57.36
2019-05-12T09:36:04.315Z,57.37
2019-05-12T09:38:06.198Z,57.50
2019-05-12T09:40:06.008Z,57.62
2019-05-12T09:42:07.636Z,57.58
2019-05-12T09:44:09.220Z,57.66
2019-05-12T09:46:10.799Z,57.75
2019-05-12T09:48:14.074Z,57.80
2019-05-12T09:50:18.357Z,57.71
2019-05-12T09:52:22.197Z,57.39
2019-05-12T09:54:17.428Z,57.39
2019-05-12T09:56:19.021Z,57.40
2019-05-12T09:58:27.279Z,57.35
2019-05-12T10:00:23.930Z,57.44
2019-05-12T10:02:23.940Z,57.47
2019-05-12T10:04:25.548Z,57.55
2019-05-12T10:06:27.183Z,57.61
2019-05-12T10:08:29.289Z,57.64
2019-05-12T10:10:38.262Z,57.68
2019-05-12T10:12:38.814Z,57.55
2019-05-12T10:14:33.675Z,57.44
2019-05-12T10:16:39.557Z,57.28
2019-05-12T10:18:36.951Z,57.12
2019-05-12T10:20:39.958Z,57.11
2019-05-12T10:22:40.506Z,57.36
2019-05-12T10:24:54.597Z,57.53
2019-05-12T10:26:48.928Z,57.72
2019-05-12T10:28:52.029Z,57.62
2019-05-12T10:30:52.071Z,57.37
2019-05-12T10:32:48.668Z,57.49
2019-05-12T10:34:51.192Z,57.52
2019-05-12T10:36:53.825Z,57.53
2019-05-12T10:38:53.882Z,57.57
2019-05-12T10:40:55.264Z,57.52
2019-05-12T10:42:56.872Z,57.42
2019-05-12T10:44:58.711Z,57.32
2019-05-12T10:47:00.308Z,57.30
2019-05-12T10:49:03.918Z,57.33
2019-05-12T10:51:03.556Z,57.42
2019-05-12T10:53:09.727Z,57.50
2019-05-12T10:55:06.875Z,57.54
2019-05-12T10:57:08.455Z,57.54
2019-05-12T10:59:10.045Z,57.58
2019-05-12T11:01:13.394Z,57.52
2019-05-12T11:03:15.580Z,57.52
2019-05-12T11:05:21.229Z,57.43
2019-05-12T11:07:16.710Z,57.23
2019-05-12T11:09:21.333Z,57.20
2019-05-12T11:11:19.969Z,57.33
2019-05-12T11:13:23.335Z,57.45
2019-05-12T11:15:24.549Z,57.54
2019-05-12T11:17:24.957Z,57.55
2019-05-12T11:19:26.560Z,57.53
2019-05-12T11:21:28.166Z,57.51
2019-05-12T11:23:29.792Z,57.47
2019-05-12T11:25:33.879Z,57.26
2019-05-12T11:27:34.496Z,56.98
2019-05-12T11:29:45.738Z,57.00
2019-05-12T11:31:36.364Z,57.10
2019-05-12T11:33:38.012Z,57.23
2019-05-12T11:35:39.600Z,57.33
2019-05-12T11:37:41.184Z,57.37
2019-05-12T11:39:45.302Z,57.42
2019-05-12T11:41:44.504Z,57.34
2019-05-12T11:43:46.113Z,56.86
2019-05-12T11:45:47.690Z,56.41
2019-05-12T11:47:49.303Z,56.14
2019-05-12T11:49:53.508Z,55.98
2019-05-12T11:51:54.314Z,56.04
2019-05-12T11:53:54.389Z,56.22
2019-05-12T11:55:56.002Z,56.26
2019-05-12T11:58:00.248Z,55.16
2019-05-12T12:00:02.291Z,53.86
2019-05-12T12:02:01.114Z,52.93
2019-05-12T12:04:03.712Z,49.94
2019-05-12T12:06:04.500Z,51.81
2019-05-12T12:08:06.097Z,51.56
2019-05-12T12:10:07.870Z,51.20
2019-05-12T12:12:09.733Z,50.80
2019-05-12T12:14:11.363Z,50.83
2019-05-12T12:16:15.027Z,50.92
2019-05-12T12:18:16.682Z,50.72
2019-05-12T12:20:22.422Z,50.72
2019-05-12T12:22:20.343Z,49.58
2019-05-12T12:24:29.987Z,50.28
2019-05-12T12:26:26.210Z,47.37
2019-05-12T12:28:24.916Z,49.80
2019-05-12T12:30:26.513Z,49.47
2019-05-12T12:32:28.133Z,48.25
2019-05-12T12:34:30.482Z,49.36
2019-05-12T12:36:31.415Z,47.36
2019-05-12T12:38:33.456Z,47.05
2019-05-12T12:40:34.713Z,47.87
2019-05-12T12:42:43.682Z,46.53
2019-05-12T12:44:38.569Z,45.02
2019-05-12T12:46:40.192Z,45.47
2019-05-12T12:48:43.824Z,44.36
2019-05-12T12:50:44.537Z,43.56
2019-05-12T12:52:48.837Z,43.40
2019-05-12T12:54:46.823Z,43.35
2019-05-12T12:56:48.463Z,43.55
2019-05-12T12:58:50.095Z,44.15
2019-05-12T13:00:56.339Z,44.12
2019-05-12T13:02:53.432Z,44.02
2019-05-12T13:04:55.020Z,44.21
2019-05-12T13:06:56.605Z,43.95
2019-05-12T13:08:58.259Z,43.25
2019-05-12T13:10:59.853Z,44.54
2019-05-12T13:13:04.204Z,43.78
2019-05-12T13:15:03.878Z,43.49
2019-05-12T13:17:04.788Z,42.71
2019-05-12T13:19:12.330Z,42.06
2019-05-12T13:21:08.060Z,42.57
2019-05-12T13:23:09.648Z,41.55
2019-05-12T13:25:11.254Z,42.85
2019-05-12T13:27:14.174Z,44.37
2019-05-12T13:29:14.548Z,45.36
2019-05-12T13:31:16.378Z,45.90
2019-05-12T13:33:18.423Z,46.04
2019-05-12T13:35:20.269Z,45.59
2019-05-12T13:37:23.075Z,45.98
2019-05-12T13:39:24.219Z,46.33
2019-05-12T13:41:24.500Z,46.55
2019-05-12T13:43:26.089Z,47.73
2019-05-12T13:45:27.836Z,47.29
2019-05-12T13:47:37.704Z,47.45
2019-05-12T13:49:36.222Z,47.41
2019-05-12T13:51:33.358Z,47.47
2019-05-12T13:53:34.443Z,48.19
2019-05-12T13:55:39.411Z,48.42
2019-05-12T13:57:37.711Z,48.77
2019-05-12T13:59:39.322Z,48.85
2019-05-12T14:01:42.838Z,48.75
2019-05-12T14:03:46.222Z,49.38
2019-05-12T14:05:50.354Z,49.71
2019-05-12T14:07:50.015Z,49.64
2019-05-12T14:09:47.816Z,49.65
2019-05-12T14:11:49.700Z,49.93
2019-05-12T14:13:51.317Z,50.43
2019-05-12T14:15:53.612Z,50.06
2019-05-12T14:17:54.611Z,50.31
2019-05-12T14:19:56.216Z,49.91
2019-05-12T14:21:57.842Z,50.74
2019-05-12T14:23:59.524Z,50.87
2019-05-12T14:26:02.361Z,50.79
2019-05-12T14:28:06.910Z,50.76
2019-05-12T14:30:09.919Z,50.88
2019-05-12T14:32:06.205Z,51.14
2019-05-12T14:34:10.324Z,51.52
2019-05-12T14:36:15.851Z,50.91
2019-05-12T14:38:11.068Z,51.82
2019-05-12T14:40:13.362Z,51.68
2019-05-12T14:42:14.292Z,51.63
2019-05-12T14:44:15.906Z,51.66
2019-05-12T14:46:17.478Z,51.42
2019-05-12T14:48:19.080Z,51.51
2019-05-12T14:50:20.697Z,51.43
2019-05-12T14:52:22.304Z,51.77
2019-05-12T14:54:24.039Z,51.27
2019-05-12T14:56:25.664Z,51.71
2019-05-12T14:58:27.276Z,51.84
2019-05-12T15:00:29.531Z,51.33
2019-05-12T15:02:33.035Z,52.12
2019-05-12T15:04:32.814Z,52.06
2019-05-12T15:06:34.467Z,52.09
2019-05-12T15:08:40.080Z,52.03
2019-05-12T15:10:37.682Z,51.80
2019-05-12T15:12:39.282Z,52.21
2019-05-12T15:14:40.872Z,51.74
2019-05-12T15:16:44.832Z,52.15
2019-05-12T15:18:46.727Z,52.26
2019-05-12T15:20:49.856Z,52.34
2019-05-12T15:22:51.581Z,52.42
2019-05-12T15:24:54.037Z,52.50
2019-05-12T15:26:56.394Z,52.05
2019-05-12T15:28:54.246Z,52.02
2019-05-12T15:30:54.333Z,51.58
2019-05-12T15:32:55.752Z,51.90
2019-05-12T15:34:57.355Z,51.96
2019-05-12T15:37:00.333Z,52.27
2019-05-12T15:39:00.631Z,52.33
2019-05-12T15:41:04.290Z,51.74
2019-05-12T15:43:05.493Z,51.74
2019-05-12T15:45:06.513Z,51.72
2019-05-12T15:47:07.279Z,52.31
2019-05-12T15:49:09.105Z,52.56
2019-05-12T15:51:10.536Z,52.83
2019-05-12T15:53:16.292Z,52.94
2019-05-12T15:55:13.909Z,52.95
2019-05-12T15:57:15.537Z,52.79
2019-05-12T15:59:17.605Z,53.33
2019-05-12T16:01:18.831Z,53.15
2019-05-12T16:03:20.406Z,53.08
2019-05-12T16:05:28.793Z,53.20
2019-05-12T16:07:24.252Z,53.14
2019-05-12T16:09:25.506Z,53.29
2019-05-12T16:11:27.128Z,53.12
2019-05-12T16:13:28.735Z,52.13
2019-05-12T16:15:30.343Z,52.59
2019-05-12T16:17:34.085Z,51.91
2019-05-12T16:19:34.457Z,51.66
2019-05-12T16:21:35.301Z,50.67
2019-05-12T16:23:36.944Z,51.50
2019-05-12T16:25:38.553Z,51.44
2019-05-12T16:27:40.178Z,51.21
2019-05-12T16:29:45.608Z,50.05
2019-05-12T16:31:45.558Z,50.78
2019-05-12T16:33:45.135Z,50.76
2019-05-12T16:35:46.714Z,50.92
2019-05-12T16:37:48.286Z,49.93
2019-05-12T16:39:49.870Z,50.89
2019-05-12T16:41:51.520Z,50.70
2019-05-12T16:43:53.776Z,50.77
2019-05-12T16:45:54.782Z,50.83
2019-05-12T16:47:59.329Z,51.35
2019-05-12T16:49:58.008Z,51.29
2019-05-12T16:51:59.643Z,50.92
2019-05-12T16:54:03.479Z,51.52
2019-05-12T16:56:04.153Z,52.05
2019-05-12T16:58:04.603Z,51.94
2019-05-12T17:00:07.138Z,52.45
2019-05-12T17:02:09.830Z,52.20
2019-05-12T17:04:09.588Z,52.26
2019-05-12T17:06:11.189Z,52.25
2019-05-12T17:08:13.850Z,52.31
2019-05-12T17:10:16.496Z,52.50
2019-05-12T17:12:16.162Z,52.34
2019-05-12T17:14:17.749Z,52.29
2019-05-12T17:16:19.356Z,52.55
2019-05-12T17:18:24.271Z,52.73
2019-05-12T17:20:22.590Z,52.97
2019-05-12T17:22:24.191Z,52.67
2019-05-12T17:24:25.776Z,52.02
2019-05-12T17:26:27.362Z,52.19
2019-05-12T17:28:28.962Z,51.89
2019-05-12T17:30:30.544Z,52.53
2019-05-12T17:32:32.168Z,52.29
2019-05-12T17:34:34.127Z,51.97
2019-05-12T17:36:35.460Z,51.85
2019-05-12T17:38:37.076Z,51.77
2019-05-12T17:40:38.667Z,51.89
2019-05-12T17:42:40.258Z,51.76
2019-05-12T17:44:43.600Z,51.84
2019-05-12T17:46:44.142Z,51.89
2019-05-12T17:48:45.228Z,51.91
2019-05-12T17:50:50.474Z,51.88
2019-05-12T17:52:50.458Z,51.99
2019-05-12T17:54:50.118Z,51.39
2019-05-12T17:56:51.727Z,47.99
2019-05-12T17:58:53.319Z,46.43
2019-05-12T18:00:54.956Z,42.78
2019-05-12T18:03:14.512Z,43.93
2019-05-12T18:05:01.274Z,42.20
2019-05-12T18:07:05.945Z,40.45
2019-05-12T18:09:03.751Z,40.49
2019-05-12T18:11:03.711Z,40.95
2019-05-12T18:13:04.963Z,39.70
2019-05-12T18:15:06.568Z,39.67
2019-05-12T18:17:08.838Z,40.42
2019-05-12T18:19:15.363Z,39.55
2019-05-12T18:21:13.206Z,40.77
2019-05-12T18:23:13.513Z,37.80
2019-05-12T18:25:15.028Z,38.85
2019-05-12T18:27:16.532Z,36.91
2019-05-12T18:29:18.120Z,38.23
2019-05-12T18:31:19.850Z,41.20
2019-05-12T18:33:30.715Z,41.94
2019-05-12T18:35:23.137Z,42.78
2019-05-12T18:37:24.728Z,43.50
2019-05-12T18:39:26.312Z,44.27
2019-05-12T18:41:27.958Z,44.40
2019-05-12T18:43:29.545Z,45.06
2019-05-12T18:45:31.169Z,45.14
2019-05-12T18:47:36.369Z,48.58
2019-05-12T18:49:34.475Z,47.78
2019-05-12T18:51:36.117Z,48.38
2019-05-12T18:53:37.704Z,48.59
2019-05-12T18:55:40.330Z,48.83
2019-05-12T18:57:47.926Z,48.92
2019-05-12T18:59:46.170Z,49.88
2019-05-12T19:01:44.313Z,51.17
2019-05-12T19:03:50.802Z,49.38
2019-05-12T19:05:47.575Z,49.94
2019-05-12T19:07:49.187Z,49.95
2019-05-12T19:09:50.758Z,49.57
2019-05-12T19:11:53.631Z,50.01
2019-05-12T19:13:57.112Z,50.06
2019-05-12T19:16:02.459Z,51.00
2019-05-12T19:17:57.319Z,50.68
2019-05-12T19:19:59.839Z,49.13
2019-05-12T19:22:08.534Z,49.93
2019-05-12T19:24:03.559Z,50.52
2019-05-12T19:26:04.350Z,50.08
2019-05-12T19:28:10.337Z,49.95
2019-05-12T19:30:07.414Z,50.70
2019-05-12T19:32:09.872Z,50.10
2019-05-12T19:34:19.825Z,50.31
2019-05-12T19:36:13.589Z,50.57
2019-05-12T19:38:15.632Z,50.85
2019-05-12T19:40:17.695Z,50.72
2019-05-12T19:42:20.434Z,50.53
2019-05-12T19:44:25.327Z,50.96
2019-05-12T19:46:23.944Z,51.58
2019-05-12T19:48:27.293Z,51.55
2019-05-12T19:50:25.022Z,51.74
2019-05-12T19:52:26.608Z,52.06
2019-05-12T19:54:30.970Z,52.25
2019-05-12T19:56:35.760Z,51.87
2019-05-12T19:58:34.054Z,50.85
2019-05-12T20:00:34.392Z,51.71
2019-05-12T20:02:36.012Z,51.76
2019-05-12T20:04:45.547Z,51.29
2019-05-12T20:06:39.324Z,51.84
2019-05-12T20:08:40.931Z,51.69
2019-05-12T20:10:44.656Z,51.42
2019-05-12T20:12:48.845Z,51.12
2019-05-12T20:14:45.905Z,43.85
2019-05-12T20:16:47.550Z,46.23
2019-05-12T20:18:49.365Z,49.80
2019-05-12T20:20:50.766Z,49.43
2019-05-12T20:22:54.172Z,49.37
2019-05-12T20:24:54.069Z,49.74
2019-05-12T20:26:55.670Z,50.11
2019-05-12T20:28:57.259Z,50.36
2019-05-12T20:31:01.176Z,50.06
2019-05-12T20:33:00.583Z,50.53
2019-05-12T20:35:04.284Z,50.06
2019-05-12T20:37:07.481Z,50.85
2019-05-12T20:39:10.115Z,50.51
2019-05-12T20:41:10.863Z,50.55
2019-05-12T20:43:11.542Z,50.93
2019-05-12T20:45:10.442Z,51.25
2019-05-12T20:47:13.985Z,50.95
2019-05-12T20:49:14.906Z,51.20
2019-05-12T20:51:19.978Z,50.89
2019-05-12T20:53:17.007Z,51.13
2019-05-12T20:55:18.595Z,50.70
2019-05-12T20:57:20.179Z,50.76
2019-05-12T20:59:27.745Z,50.75
2019-05-12T21:01:28.209Z,50.81
2019-05-12T21:03:25.096Z,50.88
2019-05-12T21:05:26.699Z,51.06
2019-05-12T21:07:28.322Z,50.89
2019-05-12T21:09:29.967Z,51.06
2019-05-12T21:11:33.725Z,51.02
2019-05-12T21:13:34.493Z,50.88
2019-05-12T21:15:40.770Z,51.04
2019-05-12T21:17:42.674Z,47.68
2019-05-12T21:19:40.154Z,43.04
2019-05-12T21:21:39.955Z,46.75
2019-05-12T21:23:47.922Z,47.90
2019-05-12T21:25:51.959Z,48.04
2019-05-12T21:27:47.796Z,48.29
2019-05-12T21:29:46.492Z,48.71
2019-05-12T21:31:48.080Z,49.40
2019-05-12T21:33:49.672Z,49.44
2019-05-12T21:35:51.245Z,49.76
2019-05-12T21:37:53.773Z,49.88
2019-05-12T21:39:54.502Z,50.60
2019-05-12T21:41:56.088Z,50.45
2019-05-12T21:43:59.980Z,50.05
2019-05-12T21:46:01.143Z,49.83
2019-05-12T21:48:03.570Z,49.82
2019-05-12T21:50:03.654Z,50.09
2019-05-12T21:52:06.583Z,50.20
2019-05-12T21:54:06.817Z,51.11
2019-05-12T21:56:08.364Z,50.61
2019-05-12T21:58:12.153Z,51.18
2019-05-12T22:00:18.262Z,51.48
2019-05-12T22:02:14.672Z,51.29
2019-05-12T22:04:14.998Z,50.57
2019-05-12T22:06:21.528Z,51.18
2019-05-12T22:08:22.110Z,50.57
2019-05-12T22:10:25.526Z,50.83
2019-05-12T22:12:23.501Z,50.67
2019-05-12T22:14:24.028Z,50.81
2019-05-12T22:16:29.514Z,51.28
2019-05-12T22:18:26.576Z,51.06
2019-05-12T22:20:28.159Z,51.55
2019-05-12T22:22:30.137Z,51.76
2019-05-12T22:24:37.101Z,51.83
2019-05-12T22:26:39.684Z,51.50
2019-05-12T22:28:34.792Z,50.29
2019-05-12T22:30:36.419Z,49.98
2019-05-12T22:32:38.028Z,51.14
2019-05-12T22:34:42.030Z,50.02
2019-05-12T22:36:45.455Z,49.38
2019-05-12T22:38:44.387Z,50.42
2019-05-12T22:40:49.158Z,51.47
2019-05-12T22:42:50.535Z,52.09
2019-05-12T22:44:53.030Z,52.50
2019-05-12T22:46:49.722Z,52.98
2019-05-12T22:48:53.427Z,53.18
2019-05-12T22:50:54.988Z,53.46
2019-05-12T22:52:54.732Z,53.66
2019-05-12T22:54:56.330Z,53.65
2019-05-12T22:56:57.935Z,53.83
2019-05-12T22:59:00.271Z,54.05
2019-05-12T23:01:03.147Z,54.10
2019-05-12T23:03:07.103Z,54.32
2019-05-12T23:05:04.600Z,54.68
2019-05-12T23:07:06.203Z,54.37
2019-05-12T23:09:07.792Z,54.39
2019-05-12T23:11:09.376Z,54.85
2019-05-12T23:13:13.428Z,54.63
2019-05-12T23:15:13.610Z,54.70
2019-05-12T23:17:14.284Z,54.85
2019-05-12T23:19:15.876Z,54.90
2019-05-12T23:21:17.780Z,54.71
2019-05-12T23:23:19.137Z,54.80
2019-05-12T23:25:21.722Z,54.98
2019-05-12T23:27:25.351Z,55.21
2019-05-12T23:29:26.800Z,55.28
2019-05-12T23:31:30.002Z,55.21
2019-05-12T23:33:32.154Z,55.16
2019-05-12T23:35:37.369Z,55.36
2019-05-12T23:37:38.455Z,55.34
2019-05-12T23:39:37.896Z,55.19
2019-05-12T23:41:34.544Z,55.53
2019-05-12T23:43:35.770Z,55.46
2019-05-12T23:45:37.411Z,55.40
2019-05-12T23:47:38.999Z,55.51
2019-05-12T23:49:40.630Z,55.73
2019-05-12T23:51:43.843Z,55.50
2019-05-12T23:53:43.900Z,56.05
2019-05-12T23:55:45.493Z,55.89
2019-05-12T23:57:47.104Z,55.85
2019-05-12T23:59:48.720Z,55.98
